Time;durP1;ratioP1;P1;durP2;ratioP2;P2;SDS_P1;SDS_P2;PMS_P1;PMS_P2;Temp;Humidity;BMP_temperature;BMP_pressure;BME280_temperature;BME280_humidity;BME280_pressure;Samples;Min_cycle;Max_cycle;Signal;HPM_P1;HPM_P2
2021/12/06 00:00:46;;;;;;;;;48.50;41.00;;;;;-141.35;100.00;57355.97;4952860;28;10715;-67
2021/12/06 00:03:22;;;;;;;;;43.25;40.00;;;;;-141.35;100.00;57355.97;4953326;28;10752;-68
2021/12/06 00:05:47;;;;;;;;;45.00;40.00;;;;;-141.35;100.00;57355.97;4952253;28;10727;-68
2021/12/06 00:08:12;;;;;;;;;53.25;45.50;;;;;-141.35;100.00;57355.97;4953260;28;11566;-67
2021/12/06 00:10:38;;;;;;;;;43.25;39.00;;;;;-141.35;100.00;57355.97;4953408;28;8903;-67
2021/12/06 00:13:04;;;;;;;;;44.75;41.75;;;;;-141.35;100.00;57355.97;4952178;28;8800;-67
2021/12/06 00:15:32;;;;;;;;;40.25;38.00;;;;;-141.35;100.00;57355.97;4952803;28;10651;-68
2021/12/06 00:17:58;;;;;;;;;47.25;44.25;;;;;-141.35;100.00;57355.97;4952964;28;8800;-68
2021/12/06 00:20:24;;;;;;;;;50.25;43.25;;;;;-141.35;100.00;57355.97;4952363;28;11322;-67
2021/12/06 00:22:49;;;;;;;;;39.25;38.75;;;;;-141.35;100.00;57355.97;4952276;28;11751;-68
2021/12/06 00:25:15;;;;;;;;;44.50;39.00;;;;;-141.35;100.00;57355.97;4953103;28;9439;-67
2021/12/06 00:27:41;;;;;;;;;40.00;38.25;;;;;-141.35;100.00;57355.97;4958441;28;8864;-68
2021/12/06 00:30:11;;;;;;;;;51.25;45.00;;;;;-141.35;100.00;57355.97;4972288;28;8805;-68
2021/12/06 00:32:38;;;;;;;;;53.00;43.75;;;;;-141.35;100.00;57355.97;4971676;28;10856;-68
2021/12/06 00:35:04;;;;;;;;;46.75;36.75;;;;;-141.35;100.00;57355.97;4971271;28;10890;-67
2021/12/06 00:37:34;;;;;;;;;53.50;46.50;;;;;-141.35;100.00;57355.97;4971825;28;10754;-67
2021/12/06 00:40:04;;;;;;;;;53.25;44.75;;;;;-141.35;100.00;57355.97;4971971;28;10899;-68
2021/12/06 00:42:33;;;;;;;;;55.75;43.75;;;;;-141.35;100.00;57355.97;4971043;28;10977;-68
2021/12/06 00:44:59;;;;;;;;;55.00;47.00;;;;;-141.35;100.00;57355.97;4971975;28;10696;-67
2021/12/06 00:47:24;;;;;;;;;54.75;46.00;;;;;-141.35;100.00;57355.97;4971829;28;11181;-67
2021/12/06 00:49:50;;;;;;;;;47.25;42.50;;;;;-141.35;100.00;57355.97;4970889;28;12319;-66
2021/12/06 00:52:16;;;;;;;;;53.25;45.50;;;;;-141.35;100.00;57355.97;4971904;28;8789;-66
2021/12/06 00:54:43;;;;;;;;;63.25;48.25;;;;;-141.35;100.00;57355.97;4971985;28;8777;-67
2021/12/06 00:57:12;;;;;;;;;50.50;44.25;;;;;-141.35;100.00;57355.97;4951837;28;10900;-66
2021/12/06 00:59:40;;;;;;;;;44.50;40.75;;;;;-141.35;100.00;57355.97;4952678;28;10745;-67
2021/12/06 01:02:08;;;;;;;;;58.25;49.00;;;;;-141.35;100.00;57355.97;4952113;28;10670;-67
2021/12/06 01:04:37;;;;;;;;;46.50;40.50;;;;;-141.35;100.00;57355.97;4952364;28;11168;-67
2021/12/06 01:07:04;;;;;;;;;48.50;41.75;;;;;-141.35;100.00;57355.97;4952325;28;10697;-67
2021/12/06 01:09:30;;;;;;;;;52.00;45.25;;;;;-141.35;100.00;57355.97;4951836;28;10745;-67
2021/12/06 01:11:56;;;;;;;;;46.00;37.75;;;;;-141.35;100.00;57355.97;4952308;28;10994;-67
2021/12/06 01:14:21;;;;;;;;;57.25;47.75;;;;;-141.35;100.00;57355.97;4952790;28;8769;-67
2021/12/06 01:16:47;;;;;;;;;55.25;48.00;;;;;-141.35;100.00;57355.97;4951580;28;8791;-67
2021/12/06 01:19:12;;;;;;;;;48.75;43.50;;;;;-141.35;100.00;57355.97;4952714;28;8796;-67
2021/12/06 01:22:03;;;;;;;;;45.50;41.00;;;;;-141.35;100.00;57355.97;4952443;28;8827;-67
2021/12/06 01:24:36;;;;;;;;;55.50;45.25;;;;;-141.35;100.00;57355.97;4952127;28;8828;-67
2021/12/06 01:32:16;;;;;;;;;53.50;47.00;;;;;-141.35;100.00;57355.97;4955091;28;10883;-67
2021/12/06 01:40:07;;;;;;;;;54.75;46.00;;;;;-141.35;100.00;57355.97;4955933;28;10561;-67
2021/12/06 01:42:32;;;;;;;;;55.50;47.00;;;;;-141.35;100.00;57355.97;4955959;28;10835;-67
2021/12/06 01:44:58;;;;;;;;;51.50;41.25;;;;;-141.35;100.00;57355.97;4955105;28;10989;-67
2021/12/06 01:47:30;;;;;;;;;62.75;50.00;;;;;-141.35;100.00;57355.97;4955706;28;8816;-67
2021/12/06 01:49:58;;;;;;;;;59.25;50.00;;;;;-141.35;100.00;57355.97;4955701;28;8818;-68
2021/12/06 01:52:27;;;;;;;;;70.00;53.00;;;;;-141.35;100.00;57355.97;4954492;28;10959;-67
2021/12/06 01:54:54;;;;;;;;;51.50;43.50;;;;;-141.35;100.00;57355.97;4955253;28;11035;-68
2021/12/06 01:57:21;;;;;;;;;55.75;43.50;;;;;-141.35;100.00;57355.97;4955886;28;10910;-67
2021/12/06 01:59:46;;;;;;;;;56.25;45.50;;;;;-141.35;100.00;57355.97;4954671;28;10864;-67
2021/12/06 02:02:12;;;;;;;;;50.75;45.75;;;;;-141.35;100.00;57355.97;4955250;28;10819;-68
2021/12/06 02:04:39;;;;;;;;;45.25;42.50;;;;;-141.35;100.00;57355.97;4955517;28;8849;-67
2021/12/06 02:07:09;;;;;;;;;56.25;48.75;;;;;-141.35;100.00;57355.97;4954713;28;11553;-67
2021/12/06 02:09:35;;;;;;;;;64.25;52.75;;;;;-141.35;100.00;57355.97;4955531;28;10981;-67
2021/12/06 02:12:02;;;;;;;;;62.75;48.75;;;;;-141.35;100.00;57355.97;4955169;28;10955;-67
2021/12/06 02:14:37;;;;;;;;;63.00;52.00;;;;;-141.35;100.00;57355.97;4954450;28;11006;-67
2021/12/06 02:17:18;;;;;;;;;48.25;43.25;;;;;-141.35;100.00;57355.97;4955056;28;11013;-67
2021/12/06 02:19:50;;;;;;;;;46.00;43.00;;;;;-141.35;100.00;57355.97;4954382;28;11448;-68
2021/12/06 02:22:23;;;;;;;;;63.00;49.25;;;;;-141.35;100.00;57355.97;4955029;28;10787;-68
2021/12/06 02:24:49;;;;;;;;;46.25;43.75;;;;;-141.35;100.00;57355.97;4954655;28;10875;-67
2021/12/06 02:27:16;;;;;;;;;50.75;44.00;;;;;-141.35;100.00;57355.97;4954078;28;10762;-67
2021/12/06 02:29:45;;;;;;;;;57.25;46.25;;;;;-141.35;100.00;57355.97;4954659;28;10671;-68
2021/12/06 02:32:12;;;;;;;;;55.50;47.25;;;;;-141.35;100.00;57355.97;4954996;28;10756;-67
2021/12/06 02:34:40;;;;;;;;;51.25;44.00;;;;;-141.35;100.00;57355.97;4954126;28;10808;-68
2021/12/06 02:37:09;;;;;;;;;61.00;49.25;;;;;-141.35;100.00;57355.97;4955015;28;10722;-68
2021/12/06 02:39:36;;;;;;;;;54.25;47.75;;;;;-141.35;100.00;57355.97;4954463;28;10813;-68
2021/12/06 02:42:02;;;;;;;;;52.50;46.75;;;;;-141.35;100.00;57355.97;4953808;28;10912;-68
2021/12/06 02:44:28;;;;;;;;;52.25;45.00;;;;;-141.35;100.00;57355.97;4954662;28;10804;-67
2021/12/06 02:46:54;;;;;;;;;54.25;46.00;;;;;-141.35;100.00;57355.97;4954458;28;10839;-67
2021/12/06 02:49:20;;;;;;;;;58.50;46.25;;;;;-141.35;100.00;57355.97;4954191;28;8894;-67
2021/12/06 02:51:45;;;;;;;;;50.25;44.00;;;;;-141.35;100.00;57355.97;4954394;28;8769;-67
2021/12/06 02:54:11;;;;;;;;;48.50;44.75;;;;;-141.35;100.00;57355.97;4954588;28;11291;-68
2021/12/06 02:56:52;;;;;;;;;49.25;45.00;;;;;-141.35;100.00;57355.97;4953994;28;8871;-67
2021/12/06 02:59:19;;;;;;;;;52.50;45.75;;;;;-141.35;100.00;57355.97;4954688;28;8776;-67
2021/12/06 03:01:47;;;;;;;;;47.00;42.00;;;;;-141.35;100.00;57355.97;4953713;28;10821;-67
2021/12/06 03:04:14;;;;;;;;;37.00;30.75;;;;;-141.35;100.00;57355.97;4954566;28;10759;-67
2021/12/06 03:06:40;;;;;;;;;45.75;44.25;;;;;-141.35;100.00;57355.97;4954590;28;10863;-67
2021/12/06 03:09:11;;;;;;;;;50.75;45.00;;;;;-141.35;100.00;57355.97;4954036;28;10679;-67
2021/12/06 03:11:44;;;;;;;;;57.25;46.25;;;;;-141.35;100.00;57355.97;4954253;28;10918;-66
2021/12/06 03:14:12;;;;;;;;;56.50;47.75;;;;;-141.35;100.00;57355.97;4954304;28;10792;-66
2021/12/06 03:16:39;;;;;;;;;54.75;46.25;;;;;-141.35;100.00;57355.97;4953763;28;10981;-67
2021/12/06 03:19:05;;;;;;;;;51.00;44.50;;;;;-141.35;100.00;57355.97;4954115;28;10885;-67
2021/12/06 03:21:31;;;;;;;;;59.25;48.50;;;;;-141.35;100.00;57355.97;4954073;28;11062;-67
2021/12/06 03:23:57;;;;;;;;;66.00;52.50;;;;;-141.35;100.00;57355.97;4952594;28;11041;-67
2021/12/06 03:26:24;;;;;;;;;53.00;46.25;;;;;-141.35;100.00;57355.97;4954130;28;8959;-67
2021/12/06 03:28:49;;;;;;;;;55.50;45.75;;;;;-141.35;100.00;57355.97;4953430;28;10958;-67
2021/12/06 03:31:15;;;;;;;;;55.25;47.25;;;;;-141.35;100.00;57355.97;4953314;28;10974;-67
2021/12/06 03:33:43;;;;;;;;;54.00;47.25;;;;;-141.35;100.00;57355.97;4953630;28;8815;-68
2021/12/06 03:36:10;;;;;;;;;56.50;48.50;;;;;-141.35;100.00;57355.97;4953837;28;8812;-67
2021/12/06 03:38:38;;;;;;;;;63.25;47.75;;;;;-141.35;100.00;57355.97;4953256;28;11070;-67
2021/12/06 03:41:04;;;;;;;;;50.00;46.75;;;;;-141.35;100.00;57355.97;4953545;28;10917;-67
2021/12/06 03:43:30;;;;;;;;;49.75;40.75;;;;;-141.35;100.00;57355.97;4953756;28;11606;-67
2021/12/06 03:45:55;;;;;;;;;60.25;48.25;;;;;-141.35;100.00;57355.97;4952581;28;10990;-67
2021/12/06 03:48:21;;;;;;;;;60.25;49.50;;;;;-141.35;100.00;57355.97;4953574;28;8792;-67
2021/12/06 03:50:46;;;;;;;;;53.25;44.50;;;;;-141.35;100.00;57355.97;4952117;28;8804;-67
2021/12/06 03:53:12;;;;;;;;;50.75;42.00;;;;;-141.35;100.00;57355.97;4953532;28;8772;-67
2021/12/06 03:55:37;;;;;;;;;64.50;50.75;;;;;-141.35;100.00;57355.97;4953350;28;9544;-67
2021/12/06 03:58:03;;;;;;;;;68.25;50.50;;;;;-141.35;100.00;57355.97;4952632;28;8847;-67
2021/12/06 04:00:28;;;;;;;;;49.25;45.25;;;;;-141.35;100.00;57355.97;4953532;28;8784;-67
2021/12/06 04:02:54;;;;;;;;;51.50;46.50;;;;;-141.35;100.00;57355.97;4953174;28;8804;-67
2021/12/06 04:05:19;;;;;;;;;51.00;45.25;;;;;-141.35;100.00;57355.97;4952726;28;8784;-67
2021/12/06 04:07:45;;;;;;;;;60.00;49.50;;;;;-141.35;100.00;57355.97;4952912;28;8828;-67
2021/12/06 04:10:11;;;;;;;;;45.00;44.25;;;;;-141.35;100.00;57355.97;4953245;28;8890;-67
2021/12/06 04:12:38;;;;;;;;;41.25;37.50;;;;;-141.35;100.00;57355.97;4952638;28;8796;-68
2021/12/06 04:15:07;;;;;;;;;40.75;40.75;;;;;-141.35;100.00;57355.97;4952937;28;10885;-68
2021/12/06 04:17:33;;;;;;;;;54.50;44.00;;;;;-141.35;100.00;57355.97;4953289;28;10827;-68
2021/12/06 04:19:58;;;;;;;;;39.00;35.25;;;;;-141.35;100.00;57355.97;4955873;28;10859;-67
2021/12/06 04:22:24;;;;;;;;;52.75;44.50;;;;;-141.35;100.00;57355.97;4972066;28;8825;-68
2021/12/06 04:24:49;;;;;;;;;52.50;46.75;;;;;-141.35;100.00;57355.97;4971844;28;8797;-67
2021/12/06 04:27:15;;;;;;;;;42.00;38.25;;;;;-141.35;100.00;57355.97;4971674;28;8947;-68
2021/12/06 04:29:47;;;;;;;;;47.25;43.50;;;;;-141.35;100.00;57355.97;4972062;28;8785;-68
2021/12/06 04:32:13;;;;;;;;;40.50;37.25;;;;;-141.35;100.00;57355.97;4972335;28;10770;-67
2021/12/06 04:34:39;;;;;;;;;42.75;41.00;;;;;-141.35;100.00;57355.97;4971523;28;10922;-68
2021/12/06 04:37:04;;;;;;;;;49.75;46.00;;;;;-141.35;100.00;57355.97;4972296;28;10823;-67
2021/12/06 04:39:33;;;;;;;;;44.50;42.50;;;;;-141.35;100.00;57355.97;4972137;28;11672;-68
2021/12/06 04:41:58;;;;;;;;;45.75;42.50;;;;;-141.35;100.00;57355.97;4971305;28;8786;-67
2021/12/06 04:44:24;;;;;;;;;53.50;47.75;;;;;-141.35;100.00;57355.97;4972163;28;10639;-67
2021/12/06 04:46:49;;;;;;;;;50.00;44.25;;;;;-141.35;100.00;57355.97;4971613;28;8833;-67
2021/12/06 04:49:15;;;;;;;;;39.00;39.00;;;;;-141.35;100.00;57355.97;4971416;28;8773;-67
2021/12/06 04:51:50;;;;;;;;;55.00;48.50;;;;;-141.35;100.00;57355.97;4971923;28;8800;-68
2021/12/06 04:54:17;;;;;;;;;47.50;45.00;;;;;-141.35;100.00;57355.97;4971101;28;11876;-68
2021/12/06 04:56:48;;;;;;;;;44.00;41.75;;;;;-141.35;100.00;57355.97;4955659;28;10993;-67
2021/12/06 04:59:16;;;;;;;;;55.00;46.00;;;;;-141.35;100.00;57355.97;4952483;28;10770;-67
2021/12/06 05:01:42;;;;;;;;;51.00;40.00;;;;;-141.35;100.00;57355.97;4953537;28;10914;-68
2021/12/06 05:04:13;;;;;;;;;44.75;44.50;;;;;-141.35;100.00;57355.97;4956604;28;10962;-67
2021/12/06 05:06:42;;;;;;;;;49.50;44.00;;;;;-141.35;100.00;57355.97;4956430;28;8848;-67
2021/12/06 05:09:13;;;;;;;;;45.50;37.75;;;;;-141.35;100.00;57355.97;4955552;28;10715;-67
2021/12/06 05:11:41;;;;;;;;;51.75;43.50;;;;;-141.35;100.00;57355.97;4956396;28;10719;-67
2021/12/06 05:14:07;;;;;;;;;48.75;44.50;;;;;-141.35;100.00;57355.97;4956296;28;11716;-68
2021/12/06 05:16:35;;;;;;;;;47.50;41.25;;;;;-141.35;100.00;57355.97;4955568;28;10737;-67
2021/12/06 05:19:00;;;;;;;;;52.50;42.50;;;;;-141.35;100.00;57355.97;4955778;28;8792;-68
2021/12/06 05:21:26;;;;;;;;;52.50;43.75;;;;;-141.35;100.00;57355.97;4956172;28;11140;-68
2021/12/06 05:23:51;;;;;;;;;44.25;43.00;;;;;-141.35;100.00;57355.97;4955133;28;8820;-67
2021/12/06 05:26:16;;;;;;;;;47.00;44.50;;;;;-141.35;100.00;57355.97;4956174;28;8954;-67
2021/12/06 05:28:44;;;;;;;;;51.50;39.25;;;;;-141.35;100.00;57355.97;4955733;28;8883;-67
2021/12/06 05:31:15;;;;;;;;;49.50;36.75;;;;;-141.35;100.00;57355.97;4955523;28;8807;-67
2021/12/06 05:33:46;;;;;;;;;48.75;45.00;;;;;-141.35;100.00;57355.97;4955522;28;10803;-67
2021/12/06 05:36:14;;;;;;;;;66.25;47.50;;;;;-141.35;100.00;57355.97;4956225;28;11061;-67
2021/12/06 05:38:39;;;;;;;;;57.50;48.25;;;;;-141.35;100.00;57355.97;4955138;28;11056;-68
2021/12/06 05:41:06;;;;;;;;;53.00;45.50;;;;;-141.35;100.00;57355.97;4955867;28;11130;-67
2021/12/06 05:43:32;;;;;;;;;52.75;47.50;;;;;-141.35;100.00;57355.97;4954991;28;8803;-68
2021/12/06 05:45:58;;;;;;;;;38.25;30.50;;;;;-141.35;100.00;57355.97;4955551;28;11805;-68
2021/12/06 05:48:24;;;;;;;;;62.75;47.25;;;;;-141.35;100.00;57355.97;4955665;28;10795;-68
2021/12/06 05:50:50;;;;;;;;;64.25;47.75;;;;;-141.35;100.00;57355.97;4954849;28;10925;-67
2021/12/06 05:53:16;;;;;;;;;44.25;36.50;;;;;-141.35;100.00;57355.97;4955840;28;9553;-68
2021/12/06 05:55:42;;;;;;;;;53.00;44.00;;;;;-141.35;100.00;57355.97;4955423;28;8797;-68
2021/12/06 05:58:11;;;;;;;;;61.50;45.25;;;;;-141.35;100.00;57355.97;4954865;28;11036;-67
2021/12/06 06:00:37;;;;;;;;;40.00;39.25;;;;;-141.35;100.00;57355.97;4955533;28;10896;-67
2021/12/06 06:03:05;;;;;;;;;35.50;35.50;;;;;-141.35;100.00;57355.97;4955244;28;10782;-67
2021/12/06 06:05:33;;;;;;;;;48.50;42.00;;;;;-141.35;100.00;57355.97;4954842;28;10643;-68
2021/12/06 06:07:58;;;;;;;;;53.75;42.50;;;;;-141.35;100.00;57355.97;4954678;28;11414;-67
2021/12/06 06:10:23;;;;;;;;;46.75;44.00;;;;;-141.35;100.00;57355.97;4955199;28;10931;-67
2021/12/06 06:12:49;;;;;;;;;56.25;48.50;;;;;-141.35;100.00;57355.97;4953494;28;8827;-67
2021/12/06 06:15:14;;;;;;;;;59.00;49.00;;;;;-141.35;100.00;57355.97;4955291;28;8807;-67
2021/12/06 06:17:43;;;;;;;;;63.50;49.00;;;;;-141.35;100.00;57355.97;4955090;28;8811;-68
2021/12/06 06:20:40;;;;;;;;;62.00;51.00;;;;;-141.35;100.00;57355.97;4960785;28;8816;-68
2021/12/06 06:23:06;;;;;;;;;61.75;49.50;;;;;-141.35;100.00;57355.97;4973929;28;11075;-67
2021/12/06 06:25:31;;;;;;;;;55.25;50.75;;;;;-141.35;100.00;57355.97;4973628;28;11195;-67
2021/12/06 06:27:57;;;;;;;;;66.00;51.75;;;;;-141.35;100.00;57355.97;4974085;28;8943;-68
2021/12/06 06:30:23;;;;;;;;;67.75;54.75;;;;;-141.35;100.00;57355.97;4974269;28;8798;-67
2021/12/06 06:32:48;;;;;;;;;61.75;52.25;;;;;-141.35;100.00;57355.97;4973412;28;8907;-67
2021/12/06 06:35:16;;;;;;;;;68.00;55.00;;;;;-141.35;100.00;57355.97;4974207;28;11590;-67
2021/12/06 06:37:42;;;;;;;;;55.25;44.25;;;;;-141.35;100.00;57355.97;4973853;28;8800;-68
2021/12/06 06:40:09;;;;;;;;;77.00;61.75;;;;;-141.35;100.00;57355.97;4973515;28;11071;-67
2021/12/06 06:42:34;;;;;;;;;62.75;53.75;;;;;-141.35;100.00;57355.97;4974230;28;11569;-69
2021/12/06 06:45:00;;;;;;;;;71.00;57.00;;;;;-141.35;100.00;57355.97;4973718;28;11556;-68
2021/12/06 06:47:25;;;;;;;;;68.50;55.75;;;;;-141.35;100.00;57355.97;4973593;28;8852;-68
2021/12/06 06:49:52;;;;;;;;;73.75;59.75;;;;;-141.35;100.00;57355.97;4973380;28;8786;-68
2021/12/06 06:52:18;;;;;;;;;64.75;54.00;;;;;-141.35;100.00;57355.97;4974045;28;8895;-69
2021/12/06 06:54:44;;;;;;;;;69.25;58.00;;;;;-141.35;100.00;57355.97;4971440;28;11442;-68
2021/12/06 06:57:10;;;;;;;;;73.25;57.00;;;;;-141.35;100.00;57355.97;4973901;28;8836;-68
2021/12/06 06:59:36;;;;;;;;;68.75;56.00;;;;;-141.35;100.00;57355.97;4972770;28;12357;-68
2021/12/06 07:02:03;;;;;;;;;72.00;59.00;;;;;-141.35;100.00;57355.97;4972858;28;11500;-68
2021/12/06 07:04:29;;;;;;;;;83.25;61.50;;;;;-141.35;100.00;57355.97;4982926;28;8803;-67
2021/12/06 07:06:54;;;;;;;;;73.50;59.50;;;;;-141.35;100.00;57355.97;4992622;28;11559;-67
2021/12/06 07:09:20;;;;;;;;;73.50;61.50;;;;;-141.35;100.00;57355.97;4990211;28;11544;-68
2021/12/06 07:11:46;;;;;;;;;75.50;57.25;;;;;-141.35;100.00;57355.97;4992853;28;8794;-67
2021/12/06 07:14:16;;;;;;;;;73.50;59.00;;;;;-141.35;100.00;57355.97;4992775;28;8814;-67
2021/12/06 07:16:43;;;;;;;;;70.50;58.50;;;;;-141.35;100.00;57355.97;4953134;28;11651;-68
2021/12/06 07:19:08;;;;;;;;;79.50;61.00;;;;;-141.35;100.00;57355.97;4969447;28;11638;-67
2021/12/06 07:21:35;;;;;;;;;78.75;62.25;;;;;-141.35;100.00;57355.97;4973258;28;11528;-68
2021/12/06 07:24:00;;;;;;;;;73.75;58.75;;;;;-141.35;100.00;57355.97;4971897;28;8828;-68
2021/12/06 07:26:26;;;;;;;;;75.00;60.00;;;;;-141.35;100.00;57355.97;4972561;28;11528;-66
2021/12/06 07:28:54;;;;;;;;;75.00;59.00;;;;;-141.35;100.00;57355.97;4972148;28;9510;-67
2021/12/06 07:31:20;;;;;;;;;81.75;62.25;;;;;-141.35;100.00;57355.97;4973529;28;8863;-67
2021/12/06 07:33:48;;;;;;;;;74.25;58.25;;;;;-141.35;100.00;57355.97;4972750;28;12290;-67
2021/12/06 07:36:13;;;;;;;;;69.75;56.75;;;;;-141.35;100.00;57355.97;4972293;28;8922;-68
2021/12/06 07:38:39;;;;;;;;;77.25;61.50;;;;;-141.35;100.00;57355.97;4973741;28;11630;-68
2021/12/06 07:41:14;;;;;;;;;77.75;62.75;;;;;-141.35;100.00;57355.97;4969748;28;8805;-68
2021/12/06 07:43:43;;;;;;;;;69.25;54.00;;;;;-141.35;100.00;57355.97;4970348;28;8800;-68
2021/12/06 07:46:09;;;;;;;;;64.50;55.75;;;;;-141.35;100.00;57355.97;4971284;28;11538;-68
2021/12/06 07:48:35;;;;;;;;;74.50;60.50;;;;;-141.35;100.00;57355.97;4971207;28;11498;-67
2021/12/06 07:51:01;;;;;;;;;70.50;58.50;;;;;-141.35;100.00;57355.97;4970325;28;11590;-67
2021/12/06 07:53:30;;;;;;;;;79.25;61.25;;;;;-141.35;100.00;57355.97;4971347;28;11542;-68
2021/12/06 07:55:56;;;;;;;;;70.25;55.50;;;;;-141.35;100.00;57355.97;4972176;28;8828;-68
2021/12/06 07:58:22;;;;;;;;;73.25;57.75;;;;;-141.35;100.00;57355.97;4971761;28;11518;-69
2021/12/06 08:00:48;;;;;;;;;74.50;59.75;;;;;-141.35;100.00;57355.97;4971923;28;11523;-71
2021/12/06 08:03:18;;;;;;;;;75.25;59.75;;;;;-141.35;100.00;57355.97;4971832;28;9561;-69
2021/12/06 08:05:46;;;;;;;;;70.25;58.00;;;;;-141.35;100.00;57355.97;4970996;28;11629;-69
2021/12/06 08:08:17;;;;;;;;;75.00;58.00;;;;;-141.35;100.00;57355.97;4971116;28;11544;-68
2021/12/06 08:10:48;;;;;;;;;75.75;62.50;;;;;-141.35;100.00;57355.97;4971494;28;11536;-69
2021/12/06 08:13:17;;;;;;;;;84.25;65.00;;;;;-141.35;100.00;57355.97;4971307;28;11522;-69
2021/12/06 08:15:43;;;;;;;;;67.50;56.00;;;;;-141.35;100.00;57355.97;4971578;28;11520;-67
2021/12/06 08:18:13;;;;;;;;;70.00;54.75;;;;;-141.35;100.00;57355.97;4971293;28;11506;-68
2021/12/06 08:20:44;;;;;;;;;65.75;56.25;;;;;-141.35;100.00;57355.97;4972271;28;11517;-69
2021/12/06 08:23:22;;;;;;;;;71.75;60.75;;;;;-141.35;100.00;57355.97;4971101;28;11537;-68
2021/12/06 08:25:49;;;;;;;;;73.00;59.75;;;;;-141.35;100.00;57355.97;4970944;28;11527;-68
2021/12/06 08:31:05;;;;;;;;;70.00;57.50;;;;;-141.35;100.00;57355.97;4974073;28;11509;-69
2021/12/06 08:33:33;;;;;;;;;74.00;61.00;;;;;-141.35;100.00;57355.97;4971331;28;11509;-68
2021/12/06 08:35:59;;;;;;;;;74.00;61.25;;;;;-141.35;100.00;57355.97;4970893;28;11503;-69
2021/12/06 08:38:28;;;;;;;;;72.75;58.50;;;;;-141.35;100.00;57355.97;4957317;28;11553;-68
2021/12/06 08:40:56;;;;;;;;;68.25;53.75;;;;;-141.35;100.00;57355.97;4972634;28;8813;-69
2021/12/06 08:43:22;;;;;;;;;81.75;64.50;;;;;-141.35;100.00;57355.97;4991127;28;11499;-69
2021/12/06 08:45:52;;;;;;;;;78.25;63.00;;;;;-141.35;100.00;57355.97;4990731;28;11500;-68
2021/12/06 08:48:19;;;;;;;;;50.50;43.00;;;;;-141.35;100.00;57355.97;4990157;28;11576;-69
2021/12/06 08:50:45;;;;;;;;;76.25;59.75;;;;;-141.35;100.00;57355.97;4988436;28;11576;-68
2021/12/06 08:53:11;;;;;;;;;81.00;61.50;;;;;-141.35;100.00;57355.97;4987776;28;11496;-68
2021/12/06 08:55:38;;;;;;;;;74.00;56.50;;;;;-141.35;100.00;57355.97;4976480;28;8855;-68
2021/12/06 08:58:04;;;;;;;;;77.50;63.00;;;;;-141.35;100.00;57355.97;4967697;28;8821;-68
2021/12/06 09:00:33;;;;;;;;;76.00;61.50;;;;;-141.35;100.00;57355.97;4970901;28;11653;-67
2021/12/06 09:02:59;;;;;;;;;40.25;37.75;;;;;-141.35;100.00;57355.97;4970571;28;8793;-67
2021/12/06 09:05:37;;;;;;;;;81.50;66.75;;;;;-141.35;100.00;57355.97;4970729;28;12393;-69
2021/12/06 09:08:06;;;;;;;;;62.00;52.75;;;;;-141.35;100.00;57355.97;4970299;28;9049;-69
2021/12/06 09:10:32;;;;;;;;;71.25;56.00;;;;;-141.35;100.00;57355.97;4971641;28;11484;-67
2021/12/06 09:12:58;;;;;;;;;79.50;61.75;;;;;-141.35;100.00;57355.97;4989271;28;11530;-68
2021/12/06 09:15:24;;;;;;;;;77.25;61.00;;;;;-141.35;100.00;57355.97;4990160;28;11529;-68
2021/12/06 09:17:51;;;;;;;;;74.00;60.75;;;;;-141.35;100.00;57355.97;4983794;28;8824;-68
2021/12/06 09:20:20;;;;;;;;;82.75;60.75;;;;;-141.35;100.00;57355.97;4971066;28;8824;-68
2021/12/06 09:22:47;;;;;;;;;74.50;62.00;;;;;-141.35;100.00;57355.97;4968885;28;11548;-68
2021/12/06 09:25:13;;;;;;;;;70.25;57.25;;;;;-141.35;100.00;57355.97;4971211;28;11515;-68
2021/12/06 09:27:39;;;;;;;;;72.25;59.50;;;;;-141.35;100.00;57355.97;4970689;28;11579;-68
2021/12/06 09:30:07;;;;;;;;;81.75;61.75;;;;;-141.35;100.00;57355.97;4970710;28;11537;-67
2021/12/06 09:32:32;;;;;;;;;76.50;63.50;;;;;-141.35;100.00;57355.97;4984805;28;8837;-66
2021/12/06 09:34:58;;;;;;;;;75.25;59.25;;;;;-141.35;100.00;57355.97;4989981;28;12242;-66
2021/12/06 09:37:25;;;;;;;;;68.50;51.50;;;;;-141.35;100.00;57355.97;4988242;28;8806;-66
2021/12/06 09:40:00;;;;;;;;;68.25;55.00;;;;;-141.35;100.00;57355.97;4952970;28;11752;-67
2021/12/06 09:42:32;;;;;;;;;77.50;62.25;;;;;-141.35;100.00;57355.97;4972524;28;12276;-67
2021/12/06 09:44:57;;;;;;;;;81.00;62.25;;;;;-141.35;100.00;57355.97;4971205;28;11555;-67
2021/12/06 09:47:23;;;;;;;;;69.75;57.50;;;;;-141.35;100.00;57355.97;4979505;28;11608;-67
2021/12/06 09:49:48;;;;;;;;;77.25;62.25;;;;;-141.35;100.00;57355.97;4992240;28;9955;-67
2021/12/06 09:52:15;;;;;;;;;71.00;58.00;;;;;-141.35;100.00;57355.97;4992728;28;8819;-67
2021/12/06 09:54:41;;;;;;;;;76.00;61.50;;;;;-141.35;100.00;57355.97;4994073;28;8783;-68
2021/12/06 09:57:08;;;;;;;;;74.50;60.00;;;;;-141.35;100.00;57355.97;4961116;28;11608;-67
2021/12/06 09:59:36;;;;;;;;;71.25;56.25;;;;;-141.35;100.00;57355.97;4974713;28;8789;-66
2021/12/06 10:02:20;;;;;;;;;79.50;64.00;;;;;-141.35;100.00;57355.97;4983538;28;11550;-67
2021/12/06 10:04:51;;;;;;;;;77.75;60.25;;;;;-141.35;100.00;57355.97;4992600;28;11514;-67
2021/12/06 10:07:18;;;;;;;;;77.25;59.25;;;;;-141.35;100.00;57355.97;4993497;28;11566;-67
2021/12/06 10:09:44;;;;;;;;;80.50;61.50;;;;;-141.35;100.00;57355.97;4993648;28;11498;-67
2021/12/06 10:12:11;;;;;;;;;79.75;63.50;;;;;-141.35;100.00;57355.97;4990317;28;11635;-67
2021/12/06 10:14:37;;;;;;;;;81.00;63.50;;;;;-141.35;100.00;57355.97;4993740;28;8778;-67
2021/12/06 10:17:04;;;;;;;;;80.00;63.50;;;;;-141.35;100.00;57355.97;4992820;28;11672;-67
2021/12/06 10:19:30;;;;;;;;;79.00;63.00;;;;;-141.35;100.00;57355.97;4992828;28;11524;-68
2021/12/06 10:21:55;;;;;;;;;70.75;59.00;;;;;-141.35;100.00;57355.97;4981758;28;11556;-67
2021/12/06 10:24:24;;;;;;;;;72.00;56.25;;;;;-141.35;100.00;57355.97;4973784;28;8840;-67
2021/12/06 10:27:00;;;;;;;;;71.75;54.00;;;;;-141.35;100.00;57355.97;4972798;28;8857;-67
2021/12/06 10:29:33;;;;;;;;;78.75;58.50;;;;;-141.35;100.00;57355.97;4973949;28;11642;-69
2021/12/06 10:31:58;;;;;;;;;55.25;46.50;;;;;-141.35;100.00;57355.97;4971253;28;11568;-70
2021/12/06 10:34:27;;;;;;;;;74.00;57.50;;;;;-141.35;100.00;57355.97;4973191;28;11584;-69
2021/12/06 10:36:53;;;;;;;;;62.75;49.75;;;;;-141.35;100.00;57355.97;4972743;28;8819;-67
2021/12/06 10:39:19;;;;;;;;;61.75;50.75;;;;;-141.35;100.00;57355.97;4971820;28;11574;-66
2021/12/06 10:41:50;;;;;;;;;70.50;52.25;;;;;-141.35;100.00;57355.97;4973190;28;11885;-67
2021/12/06 10:44:15;;;;;;;;;62.25;51.50;;;;;-141.35;100.00;57355.97;4973583;28;8851;-67
2021/12/06 10:46:46;;;;;;;;;70.25;56.50;;;;;-141.35;100.00;57355.97;4972186;28;11553;-67
2021/12/06 10:49:15;;;;;;;;;58.25;47.00;;;;;-141.35;100.00;57355.97;4973786;28;8893;-68
2021/12/06 10:51:41;;;;;;;;;57.00;47.75;;;;;-141.35;100.00;57355.97;4973389;28;11146;-65
2021/12/06 10:54:17;;;;;;;;;55.75;47.25;;;;;-141.35;100.00;57355.97;4972812;28;11066;-66
2021/12/06 10:56:51;;;;;;;;;68.75;54.25;;;;;-141.35;100.00;57355.97;4973391;28;8793;-65
2021/12/06 10:59:29;;;;;;;;;62.75;52.50;;;;;-141.35;100.00;57355.97;4972959;28;11164;-67
2021/12/06 11:01:58;;;;;;;;;65.25;52.00;;;;;-141.35;100.00;57355.97;4971876;28;11115;-66
2021/12/06 11:04:26;;;;;;;;;66.00;55.25;;;;;-141.35;100.00;57355.97;4973288;28;11629;-66
2021/12/06 11:06:58;;;;;;;;;65.25;52.25;;;;;-141.35;100.00;57355.97;4972527;28;11533;-66
2021/12/06 11:09:26;;;;;;;;;64.25;45.75;;;;;-141.35;100.00;57355.97;4973319;28;11524;-67
2021/12/06 11:11:57;;;;;;;;;66.75;49.75;;;;;-141.35;100.00;57355.97;4972986;28;11513;-66